sensor_id;sensor_type;location;lat;lon;timestamp;P1;durP1;ratioP1;P2;durP2;ratioP2
55292;SDS011;41157;53.560;10.098;2023-09-19T12:27:42;10.45;;;2.25;;
55292;SDS011;41157;53.560;10.098;2023-09-19T12:30:12;13.27;;;2.58;;
55292;SDS011;41157;53.560;10.098;2023-09-19T12:32:40;15.40;;;2.17;;
55292;SDS011;41157;53.560;10.098;2023-09-19T12:35:07;6.22;;;2.20;;
55292;SDS011;41157;53.560;10.098;2023-09-19T12:37:36;8.25;;;2.63;;
55292;SDS011;41157;53.560;10.098;2023-09-19T12:40:03;13.13;;;2.28;;
55292;SDS011;41157;53.560;10.098;2023-09-19T12:42:43;8.57;;;2.35;;
55292;SDS011;41157;53.560;10.098;2023-09-19T12:45:11;10.55;;;2.55;;
55292;SDS011;41157;53.560;10.098;2023-09-19T12:47:40;6.25;;;2.15;;
55292;SDS011;41157;53.560;10.098;2023-09-19T12:50:09;10.38;;;2.17;;
55292;SDS011;41157;53.560;10.098;2023-09-19T12:52:40;9.50;;;2.60;;
55292;SDS011;41157;53.560;10.098;2023-09-19T12:55:07;8.93;;;2.13;;
55292;SDS011;41157;53.560;10.098;2023-09-19T12:57:36;5.90;;;2.17;;
55292;SDS011;41157;53.560;10.098;2023-09-19T13:00:06;7.45;;;2.08;;
55292;SDS011;41157;53.560;10.098;2023-09-19T13:02:36;5.60;;;2.38;;
55292;SDS011;41157;53.560;10.098;2023-09-19T13:05:03;7.93;;;3.30;;
55292;SDS011;41157;53.560;10.098;2023-09-19T13:07:41;9.07;;;2.50;;
55292;SDS011;41157;53.560;10.098;2023-09-19T13:10:12;13.38;;;2.72;;
55292;SDS011;41157;53.560;10.098;2023-09-19T13:12:41;6.22;;;2.30;;
55292;SDS011;41157;53.560;10.098;2023-09-19T13:15:14;12.73;;;2.70;;
55292;SDS011;41157;53.560;10.098;2023-09-19T13:17:45;6.13;;;2.53;;
55292;SDS011;41157;53.560;10.098;2023-09-19T13:20:22;5.65;;;2.40;;
55292;SDS011;41157;53.560;10.098;2023-09-19T13:22:58;11.27;;;2.35;;
55292;SDS011;41157;53.560;10.098;2023-09-19T13:25:31;11.25;;;2.55;;
55292;SDS011;41157;53.560;10.098;2023-09-19T13:27:58;10.93;;;2.58;;
55292;SDS011;41157;53.560;10.098;2023-09-19T13:30:30;14.98;;;2.60;;
55292;SDS011;41157;53.560;10.098;2023-09-19T13:33:07;7.28;;;2.58;;
55292;SDS011;41157;53.560;10.098;2023-09-19T13:35:35;12.18;;;2.65;;
55292;SDS011;41157;53.560;10.098;2023-09-19T13:38:03;5.70;;;2.28;;
55292;SDS011;41157;53.560;10.098;2023-09-19T13:40:31;5.55;;;2.13;;
55292;SDS011;41157;53.560;10.098;2023-09-19T13:43:00;11.90;;;2.83;;
55292;SDS011;41157;53.560;10.098;2023-09-19T13:45:27;13.10;;;2.55;;
55292;SDS011;41157;53.560;10.098;2023-09-19T13:47:56;11.55;;;2.70;;
55292;SDS011;41157;53.560;10.098;2023-09-19T13:50:24;8.65;;;2.90;;
55292;SDS011;41157;53.560;10.098;2023-09-19T13:52:51;14.13;;;2.95;;
55292;SDS011;41157;53.560;10.098;2023-09-19T13:55:19;22.92;;;2.47;;
55292;SDS011;41157;53.560;10.098;2023-09-19T13:57:46;5.47;;;2.30;;
55292;SDS011;41157;53.560;10.098;2023-09-19T14:00:15;5.57;;;2.10;;
55292;SDS011;41157;53.560;10.098;2023-09-19T14:02:42;4.80;;;2.22;;
55292;SDS011;41157;53.560;10.098;2023-09-19T14:05:12;5.38;;;1.70;;
55292;SDS011;41157;53.560;10.098;2023-09-19T14:07:40;9.55;;;2.20;;
55292;SDS011;41157;53.560;10.098;2023-09-19T14:10:07;9.85;;;2.47;;
55292;SDS011;41157;53.560;10.098;2023-09-19T14:12:35;8.43;;;2.80;;
55292;SDS011;41157;53.560;10.098;2023-09-19T14:15:02;6.88;;;2.60;;
55292;SDS011;41157;53.560;10.098;2023-09-19T14:17:29;10.93;;;3.08;;
55292;SDS011;41157;53.560;10.098;2023-09-19T14:19:56;10.35;;;2.47;;
55292;SDS011;41157;53.560;10.098;2023-09-19T14:22:25;10.38;;;2.33;;
55292;SDS011;41157;53.560;10.098;2023-09-19T14:24:52;7.57;;;2.40;;
55292;SDS011;41157;53.560;10.098;2023-09-19T14:27:19;6.97;;;2.33;;
55292;SDS011;41157;53.560;10.098;2023-09-19T14:29:46;7.00;;;2.20;;
55292;SDS011;41157;53.560;10.098;2023-09-19T14:32:13;3.83;;;1.83;;
55292;SDS011;41157;53.560;10.098;2023-09-19T14:34:40;10.68;;;2.30;;
55292;SDS011;41157;53.560;10.098;2023-09-19T14:37:08;7.82;;;2.22;;
55292;SDS011;41157;53.560;10.098;2023-09-19T14:39:37;10.80;;;2.85;;
55292;SDS011;41157;53.560;10.098;2023-09-19T14:42:04;5.63;;;2.17;;
55292;SDS011;41157;53.560;10.098;2023-09-19T14:44:31;6.90;;;2.17;;
55292;SDS011;41157;53.560;10.098;2023-09-19T14:47:00;11.30;;;2.65;;
55292;SDS011;41157;53.560;10.098;2023-09-19T14:49:27;7.40;;;2.08;;
55292;SDS011;41157;53.560;10.098;2023-09-19T14:51:54;5.25;;;2.17;;
55292;SDS011;41157;53.560;10.098;2023-09-19T14:54:21;15.55;;;2.72;;
55292;SDS011;41157;53.560;10.098;2023-09-19T14:56:50;7.70;;;2.20;;
55292;SDS011;41157;53.560;10.098;2023-09-19T14:59:29;10.32;;;2.60;;
55292;SDS011;41157;53.560;10.098;2023-09-19T15:01:56;5.03;;;2.20;;
55292;SDS011;41157;53.560;10.098;2023-09-19T15:04:24;4.18;;;2.00;;
55292;SDS011;41157;53.560;10.098;2023-09-19T15:06:51;12.55;;;2.63;;
55292;SDS011;41157;53.560;10.098;2023-09-19T15:09:19;9.10;;;2.10;;
55292;SDS011;41157;53.560;10.098;2023-09-19T15:11:50;5.75;;;2.22;;
55292;SDS011;41157;53.560;10.098;2023-09-19T15:14:17;6.00;;;1.98;;
55292;SDS011;41157;53.560;10.098;2023-09-19T15:16:44;9.55;;;2.55;;
55292;SDS011;41157;53.560;10.098;2023-09-19T15:19:11;6.93;;;2.28;;
55292;SDS011;41157;53.560;10.098;2023-09-19T15:21:38;6.25;;;2.15;;
55292;SDS011;41157;53.560;10.098;2023-09-19T15:24:07;5.32;;;2.30;;
55292;SDS011;41157;53.560;10.098;2023-09-19T15:26:35;6.78;;;1.92;;
55292;SDS011;41157;53.560;10.098;2023-09-19T15:29:05;12.55;;;2.40;;
55292;SDS011;41157;53.560;10.098;2023-09-19T15:31:32;4.80;;;2.60;;
55292;SDS011;41157;53.560;10.098;2023-09-19T15:34:01;8.15;;;2.45;;
55292;SDS011;41157;53.560;10.098;2023-09-19T15:36:28;7.18;;;2.22;;
55292;SDS011;41157;53.560;10.098;2023-09-19T15:38:59;6.88;;;1.83;;
55292;SDS011;41157;53.560;10.098;2023-09-19T15:41:27;11.23;;;2.72;;
55292;SDS011;41157;53.560;10.098;2023-09-19T15:43:55;10.07;;;2.72;;
55292;SDS011;41157;53.560;10.098;2023-09-19T15:46:25;14.98;;;2.15;;
55292;SDS011;41157;53.560;10.098;2023-09-19T15:48:52;7.57;;;2.38;;
55292;SDS011;41157;53.560;10.098;2023-09-19T15:51:19;9.10;;;2.30;;
55292;SDS011;41157;53.560;10.098;2023-09-19T15:53:48;7.70;;;2.72;;
55292;SDS011;41157;53.560;10.098;2023-09-19T15:56:16;7.22;;;2.30;;
55292;SDS011;41157;53.560;10.098;2023-09-19T15:58:43;7.72;;;2.30;;
55292;SDS011;41157;53.560;10.098;2023-09-19T16:01:10;9.35;;;2.78;;
55292;SDS011;41157;53.560;10.098;2023-09-19T16:03:39;8.38;;;3.90;;
55292;SDS011;41157;53.560;10.098;2023-09-19T16:06:08;7.95;;;2.13;;
55292;SDS011;41157;53.560;10.098;2023-09-19T16:08:38;7.40;;;3.22;;
55292;SDS011;41157;53.560;10.098;2023-09-19T16:11:05;8.73;;;2.58;;
55292;SDS011;41157;53.560;10.098;2023-09-19T16:13:33;10.43;;;2.40;;
55292;SDS011;41157;53.560;10.098;2023-09-19T16:16:00;5.13;;;2.10;;
55292;SDS011;41157;53.560;10.098;2023-09-19T16:18:28;10.15;;;2.42;;
55292;SDS011;41157;53.560;10.098;2023-09-19T16:21:01;11.10;;;2.50;;
55292;SDS011;41157;53.560;10.098;2023-09-19T16:23:28;6.78;;;2.47;;
55292;SDS011;41157;53.560;10.098;2023-09-19T16:26:00;7.07;;;2.10;;
55292;SDS011;41157;53.560;10.098;2023-09-19T16:28:29;4.50;;;1.80;;
55292;SDS011;41157;53.560;10.098;2023-09-19T16:30:57;6.85;;;2.17;;
55292;SDS011;41157;53.560;10.098;2023-09-19T16:33:24;10.23;;;2.13;;
55292;SDS011;41157;53.560;10.098;2023-09-19T16:35:51;8.52;;;2.13;;
55292;SDS011;41157;53.560;10.098;2023-09-19T16:38:20;7.30;;;2.25;;
55292;SDS011;41157;53.560;10.098;2023-09-19T16:40:53;3.65;;;1.98;;
55292;SDS011;41157;53.560;10.098;2023-09-19T16:43:21;9.38;;;1.98;;
55292;SDS011;41157;53.560;10.098;2023-09-19T16:45:51;6.05;;;2.10;;
55292;SDS011;41157;53.560;10.098;2023-09-19T16:48:19;6.88;;;2.03;;
55292;SDS011;41157;53.560;10.098;2023-09-19T16:50:46;7.28;;;1.90;;
55292;SDS011;41157;53.560;10.098;2023-09-19T16:53:13;4.80;;;2.20;;
55292;SDS011;41157;53.560;10.098;2023-09-19T16:55:43;7.97;;;2.35;;
55292;SDS011;41157;53.560;10.098;2023-09-19T16:58:11;5.78;;;2.03;;
55292;SDS011;41157;53.560;10.098;2023-09-19T17:00:38;8.65;;;2.25;;
55292;SDS011;41157;53.560;10.098;2023-09-19T17:03:05;5.80;;;2.72;;
55292;SDS011;41157;53.560;10.098;2023-09-19T17:05:33;7.72;;;2.55;;
55292;SDS011;41157;53.560;10.098;2023-09-19T17:08:04;7.03;;;2.17;;
55292;SDS011;41157;53.560;10.098;2023-09-19T17:10:31;7.53;;;1.80;;
55292;SDS011;41157;53.560;10.098;2023-09-19T17:13:00;3.88;;;1.67;;
55292;SDS011;41157;53.560;10.098;2023-09-19T17:15:32;8.93;;;1.92;;
55292;SDS011;41157;53.560;10.098;2023-09-19T17:17:59;5.00;;;1.92;;
55292;SDS011;41157;53.560;10.098;2023-09-19T17:20:26;5.10;;;2.30;;
55292;SDS011;41157;53.560;10.098;2023-09-19T17:22:53;8.65;;;1.95;;
55292;SDS011;41157;53.560;10.098;2023-09-19T17:25:20;7.72;;;2.47;;
55292;SDS011;41157;53.560;10.098;2023-09-19T17:27:47;12.95;;;2.08;;
55292;SDS011;41157;53.560;10.098;2023-09-19T17:30:16;4.90;;;1.73;;
55292;SDS011;41157;53.560;10.098;2023-09-19T17:32:44;7.20;;;2.30;;
55292;SDS011;41157;53.560;10.098;2023-09-19T17:35:12;5.43;;;1.70;;
55292;SDS011;41157;53.560;10.098;2023-09-19T17:37:39;4.35;;;2.10;;
55292;SDS011;41157;53.560;10.098;2023-09-19T17:40:07;7.43;;;2.05;;
55292;SDS011;41157;53.560;10.098;2023-09-19T17:42:35;6.03;;;1.88;;
55292;SDS011;41157;53.560;10.098;2023-09-19T17:45:03;4.88;;;2.17;;
55292;SDS011;41157;53.560;10.098;2023-09-19T17:47:31;5.65;;;1.90;;
55292;SDS011;41157;53.560;10.098;2023-09-19T17:49:58;10.07;;;2.58;;
55292;SDS011;41157;53.560;10.098;2023-09-19T17:52:26;8.57;;;2.05;;
55292;SDS011;41157;53.560;10.098;2023-09-19T17:54:54;8.48;;;2.28;;
55292;SDS011;41157;53.560;10.098;2023-09-19T17:57:23;8.52;;;2.35;;
55292;SDS011;41157;53.560;10.098;2023-09-19T17:59:50;8.60;;;1.98;;
55292;SDS011;41157;53.560;10.098;2023-09-19T18:02:18;5.85;;;1.80;;
55292;SDS011;41157;53.560;10.098;2023-09-19T18:04:47;6.80;;;1.90;;
55292;SDS011;41157;53.560;10.098;2023-09-19T18:07:14;4.32;;;2.00;;
55292;SDS011;41157;53.560;10.098;2023-09-19T18:09:41;5.38;;;2.17;;
55292;SDS011;41157;53.560;10.098;2023-09-19T18:12:09;8.30;;;2.50;;
55292;SDS011;41157;53.560;10.098;2023-09-19T18:14:36;6.90;;;1.92;;
55292;SDS011;41157;53.560;10.098;2023-09-19T18:17:03;4.22;;;1.70;;
55292;SDS011;41157;53.560;10.098;2023-09-19T18:19:31;7.55;;;2.20;;
55292;SDS011;41157;53.560;10.098;2023-09-19T18:21:59;5.45;;;1.90;;
55292;SDS011;41157;53.560;10.098;2023-09-19T18:24:29;5.38;;;2.47;;
55292;SDS011;41157;53.560;10.098;2023-09-19T18:26:56;10.40;;;2.05;;
55292;SDS011;41157;53.560;10.098;2023-09-19T18:29:23;5.60;;;2.28;;
55292;SDS011;41157;53.560;10.098;2023-09-19T18:31:50;9.50;;;2.22;;
55292;SDS011;41157;53.560;10.098;2023-09-19T18:34:17;4.50;;;1.92;;
55292;SDS011;41157;53.560;10.098;2023-09-19T18:36:44;10.05;;;2.20;;
55292;SDS011;41157;53.560;10.098;2023-09-19T18:39:12;5.60;;;2.00;;
55292;SDS011;41157;53.560;10.098;2023-09-19T18:41:45;3.83;;;2.03;;
55292;SDS011;41157;53.560;10.098;2023-09-19T18:44:12;5.65;;;1.92;;
55292;SDS011;41157;53.560;10.098;2023-09-19T18:46:39;6.18;;;1.67;;
55292;SDS011;41157;53.560;10.098;2023-09-19T18:49:08;5.32;;;1.85;;
55292;SDS011;41157;53.560;10.098;2023-09-19T18:51:36;5.68;;;1.67;;
55292;SDS011;41157;53.560;10.098;2023-09-19T18:54:03;4.22;;;1.98;;
55292;SDS011;41157;53.560;10.098;2023-09-19T18:56:32;5.60;;;2.10;;
55292;SDS011;41157;53.560;10.098;2023-09-19T18:58:59;5.03;;;1.90;;
55292;SDS011;41157;53.560;10.098;2023-09-19T19:01:26;9.45;;;1.70;;
55292;SDS011;41157;53.560;10.098;2023-09-19T19:03:55;2.83;;;1.80;;
55292;SDS011;41157;53.560;10.098;2023-09-19T19:06:22;5.50;;;1.70;;
55292;SDS011;41157;53.560;10.098;2023-09-19T19:08:49;10.30;;;2.50;;
55292;SDS011;41157;53.560;10.098;2023-09-19T19:11:18;3.58;;;2.22;;
55292;SDS011;41157;53.560;10.098;2023-09-19T19:13:51;9.75;;;1.90;;
55292;SDS011;41157;53.560;10.098;2023-09-19T19:16:18;5.18;;;1.90;;
55292;SDS011;41157;53.560;10.098;2023-09-19T19:18:45;11.63;;;2.00;;
55292;SDS011;41157;53.560;10.098;2023-09-19T19:21:14;3.28;;;1.55;;
55292;SDS011;41157;53.560;10.098;2023-09-19T19:23:41;4.72;;;2.15;;
55292;SDS011;41157;53.560;10.098;2023-09-19T19:26:08;4.63;;;1.75;;
55292;SDS011;41157;53.560;10.098;2023-09-19T19:28:37;4.05;;;1.38;;
55292;SDS011;41157;53.560;10.098;2023-09-19T19:31:06;4.32;;;1.30;;
55292;SDS011;41157;53.560;10.098;2023-09-19T19:33:34;2.22;;;1.50;;
55292;SDS011;41157;53.560;10.098;2023-09-19T19:36:04;3.85;;;1.73;;
55292;SDS011;41157;53.560;10.098;2023-09-19T19:38:32;4.47;;;1.80;;
55292;SDS011;41157;53.560;10.098;2023-09-19T19:40:59;7.93;;;2.00;;
55292;SDS011;41157;53.560;10.098;2023-09-19T19:43:26;3.67;;;1.50;;
55292;SDS011;41157;53.560;10.098;2023-09-19T19:45:53;11.82;;;1.88;;
55292;SDS011;41157;53.560;10.098;2023-09-19T19:48:22;8.35;;;1.60;;
55292;SDS011;41157;53.560;10.098;2023-09-19T19:50:49;2.45;;;1.60;;
55292;SDS011;41157;53.560;10.098;2023-09-19T19:53:16;6.13;;;1.80;;
55292;SDS011;41157;53.560;10.098;2023-09-19T19:55:43;3.75;;;1.45;;
55292;SDS011;41157;53.560;10.098;2023-09-19T19:58:11;4.78;;;1.67;;
55292;SDS011;41157;53.560;10.098;2023-09-19T20:00:39;1.80;;;1.27;;
55292;SDS011;41157;53.560;10.098;2023-09-19T20:03:07;2.55;;;1.38;;
55292;SDS011;41157;53.560;10.098;2023-09-19T20:05:37;9.50;;;1.55;;
55292;SDS011;41157;53.560;10.098;2023-09-19T20:08:06;3.85;;;1.38;;
55292;SDS011;41157;53.560;10.098;2023-09-19T20:10:36;4.80;;;1.73;;
55292;SDS011;41157;53.560;10.098;2023-09-19T20:13:04;3.25;;;1.42;;
55292;SDS011;41157;53.560;10.098;2023-09-19T20:15:31;6.03;;;1.40;;
55292;SDS011;41157;53.560;10.098;2023-09-19T20:17:59;3.88;;;1.40;;
55292;SDS011;41157;53.560;10.098;2023-09-19T20:20:27;4.25;;;1.65;;
55292;SDS011;41157;53.560;10.098;2023-09-19T20:22:55;4.35;;;1.77;;
55292;SDS011;41157;53.560;10.098;2023-09-19T20:25:22;3.70;;;1.67;;
55292;SDS011;41157;53.560;10.098;2023-09-19T20:27:52;1.50;;;1.00;;
55292;SDS011;41157;53.560;10.098;2023-09-19T20:30:19;2.47;;;1.40;;
55292;SDS011;41157;53.560;10.098;2023-09-19T20:32:48;3.88;;;1.58;;
55292;SDS011;41157;53.560;10.098;2023-09-19T20:35:15;4.93;;;1.33;;
55292;SDS011;41157;53.560;10.098;2023-09-19T20:37:42;3.30;;;1.50;;
55292;SDS011;41157;53.560;10.098;2023-09-19T20:40:16;4.53;;;1.20;;
55292;SDS011;41157;53.560;10.098;2023-09-19T20:42:45;4.20;;;1.50;;
55292;SDS011;41157;53.560;10.098;2023-09-19T20:45:14;3.28;;;1.50;;
55292;SDS011;41157;53.560;10.098;2023-09-19T20:47:41;1.40;;;1.30;;
55292;SDS011;41157;53.560;10.098;2023-09-19T20:50:08;2.47;;;1.20;;
55292;SDS011;41157;53.560;10.098;2023-09-19T20:52:36;2.85;;;1.60;;
55292;SDS011;41157;53.560;10.098;2023-09-19T20:55:04;5.22;;;1.88;;
55292;SDS011;41157;53.560;10.098;2023-09-19T20:57:32;3.80;;;1.58;;
55292;SDS011;41157;53.560;10.098;2023-09-19T20:59:59;2.58;;;1.33;;
55292;SDS011;41157;53.560;10.098;2023-09-19T21:02:28;1.77;;;1.17;;
55292;SDS011;41157;53.560;10.098;2023-09-19T21:04:55;1.95;;;1.23;;
55292;SDS011;41157;53.560;10.098;2023-09-19T21:07:22;4.22;;;1.40;;
55292;SDS011;41157;53.560;10.098;2023-09-19T21:09:53;1.95;;;1.10;;
55292;SDS011;41157;53.560;10.098;2023-09-19T21:12:20;2.65;;;1.20;;
55292;SDS011;41157;53.560;10.098;2023-09-19T21:14:49;4.75;;;1.60;;
55292;SDS011;41157;53.560;10.098;2023-09-19T21:17:18;2.83;;;1.40;;
55292;SDS011;41157;53.560;10.098;2023-09-19T21:19:45;2.85;;;1.40;;
55292;SDS011;41157;53.560;10.098;2023-09-19T21:22:12;3.00;;;1.50;;
55292;SDS011;41157;53.560;10.098;2023-09-19T21:24:39;3.08;;;1.30;;
55292;SDS011;41157;53.560;10.098;2023-09-19T21:27:06;5.07;;;1.30;;
55292;SDS011;41157;53.560;10.098;2023-09-19T21:29:33;5.50;;;1.67;;
55292;SDS011;41157;53.560;10.098;2023-09-19T21:32:01;2.92;;;1.45;;
55292;SDS011;41157;53.560;10.098;2023-09-19T21:34:28;1.95;;;1.10;;
55292;SDS011;41157;53.560;10.098;2023-09-19T21:36:55;7.50;;;1.92;;
55292;SDS011;41157;53.560;10.098;2023-09-19T21:39:22;4.45;;;1.85;;
55292;SDS011;41157;53.560;10.098;2023-09-19T21:41:49;8.95;;;1.65;;
55292;SDS011;41157;53.560;10.098;2023-09-19T21:44:17;2.38;;;1.13;;
55292;SDS011;41157;53.560;10.098;2023-09-19T21:46:44;3.08;;;1.10;;
55292;SDS011;41157;53.560;10.098;2023-09-19T21:49:12;1.73;;;1.20;;
55292;SDS011;41157;53.560;10.098;2023-09-19T21:51:39;5.85;;;1.55;;
55292;SDS011;41157;53.560;10.098;2023-09-19T21:54:06;4.20;;;1.75;;
55292;SDS011;41157;53.560;10.098;2023-09-19T21:56:33;4.50;;;1.50;;
55292;SDS011;41157;53.560;10.098;2023-09-19T21:59:01;3.08;;;1.40;;
55292;SDS011;41157;53.560;10.098;2023-09-19T22:01:29;6.07;;;1.33;;
55292;SDS011;41157;53.560;10.098;2023-09-19T22:03:56;5.55;;;1.48;;
55292;SDS011;41157;53.560;10.098;2023-09-19T22:06:24;4.82;;;1.75;;
55292;SDS011;41157;53.560;10.098;2023-09-19T22:08:51;1.48;;;1.20;;
55292;SDS011;41157;53.560;10.098;2023-09-19T22:11:19;3.13;;;1.33;;
55292;SDS011;41157;53.560;10.098;2023-09-19T22:13:46;4.22;;;1.67;;
55292;SDS011;41157;53.560;10.098;2023-09-19T22:16:14;6.28;;;1.30;;
55292;SDS011;41157;53.560;10.098;2023-09-19T22:18:41;3.38;;;1.55;;
55292;SDS011;41157;53.560;10.098;2023-09-19T22:21:11;4.00;;;1.45;;
55292;SDS011;41157;53.560;10.098;2023-09-19T22:23:48;1.50;;;1.30;;
55292;SDS011;41157;53.560;10.098;2023-09-19T22:26:17;3.10;;;1.35;;
55292;SDS011;41157;53.560;10.098;2023-09-19T22:28:47;3.63;;;1.60;;
55292;SDS011;41157;53.560;10.098;2023-09-19T22:31:16;3.50;;;1.25;;
55292;SDS011;41157;53.560;10.098;2023-09-19T22:33:47;2.60;;;1.30;;
55292;SDS011;41157;53.560;10.098;2023-09-19T22:36:15;2.58;;;1.20;;
55292;SDS011;41157;53.560;10.098;2023-09-19T22:38:42;2.72;;;1.40;;
55292;SDS011;41157;53.560;10.098;2023-09-19T22:41:11;4.20;;;1.50;;
55292;SDS011;41157;53.560;10.098;2023-09-19T22:43:41;4.70;;;1.73;;
55292;SDS011;41157;53.560;10.098;2023-09-19T22:46:13;4.53;;;1.23;;
55292;SDS011;41157;53.560;10.098;2023-09-19T22:48:42;2.38;;;1.25;;
55292;SDS011;41157;53.560;10.098;2023-09-19T22:51:11;3.80;;;1.60;;
55292;SDS011;41157;53.560;10.098;2023-09-19T22:53:45;4.95;;;1.50;;
55292;SDS011;41157;53.560;10.098;2023-09-19T22:56:17;5.18;;;1.42;;
55292;SDS011;41157;53.560;10.098;2023-09-19T22:58:47;4.65;;;1.80;;
55292;SDS011;41157;53.560;10.098;2023-09-19T23:01:15;2.95;;;1.48;;
55292;SDS011;41157;53.560;10.098;2023-09-19T23:03:43;5.28;;;1.75;;
55292;SDS011;41157;53.560;10.098;2023-09-19T23:06:16;2.78;;;1.30;;
55292;SDS011;41157;53.560;10.098;2023-09-19T23:08:47;4.68;;;1.75;;
55292;SDS011;41157;53.560;10.098;2023-09-19T23:11:18;5.53;;;1.60;;
55292;SDS011;41157;53.560;10.098;2023-09-19T23:13:47;2.83;;;1.55;;
55292;SDS011;41157;53.560;10.098;2023-09-19T23:16:15;2.15;;;1.33;;
55292;SDS011;41157;53.560;10.098;2023-09-19T23:18:51;7.55;;;2.00;;
55292;SDS011;41157;53.560;10.098;2023-09-19T23:21:20;3.53;;;1.40;;
55292;SDS011;41157;53.560;10.098;2023-09-19T23:23:52;5.57;;;1.30;;
55292;SDS011;41157;53.560;10.098;2023-09-19T23:26:20;1.52;;;1.30;;
55292;SDS011;41157;53.560;10.098;2023-09-19T23:28:48;5.25;;;1.63;;
55292;SDS011;41157;53.560;10.098;2023-09-19T23:31:16;4.25;;;1.45;;
55292;SDS011;41157;53.560;10.098;2023-09-19T23:33:44;4.45;;;1.65;;
55292;SDS011;41157;53.560;10.098;2023-09-19T23:36:13;8.15;;;1.83;;
55292;SDS011;41157;53.560;10.098;2023-09-19T23:38:40;4.47;;;1.67;;
55292;SDS011;41157;53.560;10.098;2023-09-19T23:41:07;3.70;;;1.58;;
55292;SDS011;41157;53.560;10.098;2023-09-19T23:43:41;4.47;;;1.42;;
55292;SDS011;41157;53.560;10.098;2023-09-19T23:46:08;5.93;;;1.65;;
55292;SDS011;41157;53.560;10.098;2023-09-19T23:48:36;6.43;;;1.70;;
55292;SDS011;41157;53.560;10.098;2023-09-19T23:51:05;4.10;;;1.73;;
55292;SDS011;41157;53.560;10.098;2023-09-19T23:53:34;4.88;;;1.38;;
55292;SDS011;41157;53.560;10.098;2023-09-19T23:56:02;4.60;;;1.70;;
55292;SDS011;41157;53.560;10.098;2023-09-19T23:58:30;3.28;;;1.70;;
